Terminal Aerodrome Forecast
Issued by NWS Des Moines, IA

Home | Current Version | Previous Version | Text Only | Print | Product List | Glossary On
Versions: 1 2 3 4 5 6 7 8 9 10 11 12 13 14 15 16 17 18 19 20 21 22 23 24 25 26 27 28
000
FTUS43 KDMX 211127
TAFALO
TAF
KALO 211127Z 2112/2212 17008KT P6SM VCTS SCT035CB OVC120
      TEMPO 2112/2113 3SM BR FEW006
     FM211600 19012G18KT P6SM FEW045 BKN080 OVC120
     FM220100 VRB06KT 6SM BR VCTS SCT050CB BKN120
     FM220600 VRB05KT 2SM BR SCT008 BKN120=

USA.gov is the U.S. government's official web portal to all federal, state and local government web resources and services.